To NAV CANADA Home Page Login to a new session Search on AWWS site Disclaimer Vers la page française équivalente Tips FAQ What's new on the site To the Forecasts and Observations / NOTAM section To "File a Flight Plan" website Publications and other links Update of the User's profile FIC Telephone Numbers My Weather Data Folder Route Weather Data Regional Weather Data Local Weather Data To the Forecasts and Observations / NOTAM section
Request Generated 03/19/2019 at 23:03:59 UTC . Weather information available at that time is displayed.

METAR/TAF

INUKJUAK/QC    (show WxCam)

METAR CYPH 192300Z AUTO 32016KT 1 1/4SM -SN OVC020 M12/M14 A2963 RMK SLP040=
SPECI CYPH 192249Z AUTO 30009KT 1 1/4SM -SN OVC022 M12/M14 A2963 RMK SLP040=
SPECI CYPH 192219Z AUTO 27011KT 1SM -SN OVC016 M12/M14 A2963 RMK SLP040=
SPECI CYPH 192215Z AUTO 27011KT 1 1/4SM -SN VV017 M12/M14 A2963 RMK SLP040=
METAR CYPH 192200Z AUTO 26012KT 3/4SM -SN VV012 M12/M14 A2963 RMK SLP040=
SPECI CYPH 192139Z AUTO 25011KT 1SM -SN OVC013 M12/M14 A2964 RMK SLP043=
SPECI CYPH 192125Z AUTO 25013KT 1 1/4SM -SN VV013 M12/M14 A2964 RMK SLP043=
SPECI CYPH 192114Z AUTO 24013KT 1SM -SN OVC012 M12/M14 A2964 RMK SLP043=
SPECI CYPH 192104Z AUTO 24014KT 1 1/4SM -SN VV012 M12/M14 A2964 RMK SLP043=
METAR CYPH 192100Z AUTO 23013KT 1SM -SN VV012 M12/M14 A2964 RMK SLP043=

TAF CYPH 191738Z 1918/2006 23015G25KT 3/4SM -SN BLSN VV008 TEMPO
1919/1923 3SM -SN OVC020
BECMG 1921/1923 36012G22KT
FM192300 36012KT 6SM -SN SCT012 OVC040 TEMPO 1923/2002 21/2SM -SN
OVC012
FM200200 02015KT P6SM FEW012
RMK FCST BASED ON AUTO OBS. NXT FCST BY 200000Z=
Your time UTC time
Weather data provided by Environment Canada and NAV CANADA